sensor_id;sensor_type;location;lat;lon;timestamp;temperature;humidity
1181;DHT22;579;52.046;8.532;2023-03-11T00:00:25;2.10;1.00
1181;DHT22;579;52.046;8.532;2023-03-11T00:02:54;2.30;1.00
1181;DHT22;579;52.046;8.532;2023-03-11T00:05:23;2.40;1.00
1181;DHT22;579;52.046;8.532;2023-03-11T00:07:52;2.40;1.00
1181;DHT22;579;52.046;8.532;2023-03-11T00:11:42;2.20;1.00
1181;DHT22;579;52.046;8.532;2023-03-11T00:14:08;1.90;1.00
1181;DHT22;579;52.046;8.532;2023-03-11T00:16:34;1.70;1.00
1181;DHT22;579;52.046;8.532;2023-03-11T00:19:00;2.00;1.00
1181;DHT22;579;52.046;8.532;2023-03-11T00:21:26;2.20;1.00
1181;DHT22;579;52.046;8.532;2023-03-11T00:23:52;2.00;1.00
1181;DHT22;579;52.046;8.532;2023-03-11T00:26:19;2.10;1.00
1181;DHT22;579;52.046;8.532;2023-03-11T00:31:26;1.90;1.00
1181;DHT22;579;52.046;8.532;2023-03-11T00:33:53;1.70;1.00
1181;DHT22;579;52.046;8.532;2023-03-11T00:36:23;1.70;1.00
1181;DHT22;579;52.046;8.532;2023-03-11T00:38:50;1.70;1.00
1181;DHT22;579;52.046;8.532;2023-03-11T00:41:16;1.80;1.00
1181;DHT22;579;52.046;8.532;2023-03-11T00:43:42;1.90;1.00
1181;DHT22;579;52.046;8.532;2023-03-11T00:46:08;2.00;1.00
1181;DHT22;579;52.046;8.532;2023-03-11T00:48:36;1.90;1.00
1181;DHT22;579;52.046;8.532;2023-03-11T00:56:08;1.90;1.00
1181;DHT22;579;52.046;8.532;2023-03-11T00:58:35;1.80;1.00
1181;DHT22;579;52.046;8.532;2023-03-11T01:01:06;2.00;1.00
1181;DHT22;579;52.046;8.532;2023-03-11T01:03:33;2.20;1.00
1181;DHT22;579;52.046;8.532;2023-03-11T01:05:59;2.20;1.00
1181;DHT22;579;52.046;8.532;2023-03-11T01:08:25;2.30;1.00
1181;DHT22;579;52.046;8.532;2023-03-11T01:10:51;2.50;1.00
1181;DHT22;579;52.046;8.532;2023-03-11T01:13:18;2.40;1.00
1181;DHT22;579;52.046;8.532;2023-03-11T01:20:51;2.20;1.00
1181;DHT22;579;52.046;8.532;2023-03-11T01:23:18;2.00;1.00
1181;DHT22;579;52.046;8.532;2023-03-11T01:25:45;2.40;1.00
1181;DHT22;579;52.046;8.532;2023-03-11T01:28:12;2.40;1.00
1181;DHT22;579;52.046;8.532;2023-03-11T01:30:40;2.30;1.00
1181;DHT22;579;52.046;8.532;2023-03-11T01:33:08;2.50;1.00
1181;DHT22;579;52.046;8.532;2023-03-11T01:35:39;2.80;1.00
1181;DHT22;579;52.046;8.532;2023-03-11T01:40:48;2.40;1.00
1181;DHT22;579;52.046;8.532;2023-03-11T01:43:36;2.30;1.00
1181;DHT22;579;52.046;8.532;2023-03-11T01:46:09;2.30;1.00
1181;DHT22;579;52.046;8.532;2023-03-11T01:48:38;2.50;1.00
1181;DHT22;579;52.046;8.532;2023-03-11T01:51:05;2.50;1.00
1181;DHT22;579;52.046;8.532;2023-03-11T01:53:32;2.40;1.00
1181;DHT22;579;52.046;8.532;2023-03-11T01:56:00;2.60;1.00
1181;DHT22;579;52.046;8.532;2023-03-11T01:58:30;2.60;1.00
1181;DHT22;579;52.046;8.532;2023-03-11T02:03:39;2.80;1.00
1181;DHT22;579;52.046;8.532;2023-03-11T02:06:10;2.60;1.00
1181;DHT22;579;52.046;8.532;2023-03-11T02:08:38;2.50;1.00
1181;DHT22;579;52.046;8.532;2023-03-11T02:11:07;2.40;1.00
1181;DHT22;579;52.046;8.532;2023-03-11T02:13:36;2.50;1.00
1181;DHT22;579;52.046;8.532;2023-03-11T02:16:04;2.40;1.00
1181;DHT22;579;52.046;8.532;2023-03-11T02:18:31;2.50;1.00
1181;DHT22;579;52.046;8.532;2023-03-11T02:24:03;2.40;1.00
1181;DHT22;579;52.046;8.532;2023-03-11T02:26:38;2.40;1.00
1181;DHT22;579;52.046;8.532;2023-03-11T02:29:10;2.50;1.00
1181;DHT22;579;52.046;8.532;2023-03-11T02:31:37;2.60;1.00
1181;DHT22;579;52.046;8.532;2023-03-11T02:34:07;2.60;1.00
1181;DHT22;579;52.046;8.532;2023-03-11T02:36:39;2.50;1.00
1181;DHT22;579;52.046;8.532;2023-03-11T02:39:08;2.70;1.00
1181;DHT22;579;52.046;8.532;2023-03-11T02:41:36;2.50;1.00
1181;DHT22;579;52.046;8.532;2023-03-11T02:44:28;2.50;1.00
1181;DHT22;579;52.046;8.532;2023-03-11T02:46:54;2.80;1.00
1181;DHT22;579;52.046;8.532;2023-03-11T02:49:21;2.50;1.00
1181;DHT22;579;52.046;8.532;2023-03-11T02:51:47;2.50;1.00
1181;DHT22;579;52.046;8.532;2023-03-11T02:54:14;2.50;1.00
1181;DHT22;579;52.046;8.532;2023-03-11T02:56:40;2.60;1.00
1181;DHT22;579;52.046;8.532;2023-03-11T02:59:06;2.70;1.00
1181;DHT22;579;52.046;8.532;2023-03-11T03:04:28;2.40;1.00
1181;DHT22;579;52.046;8.532;2023-03-11T03:06:55;2.60;1.00
1181;DHT22;579;52.046;8.532;2023-03-11T03:09:21;2.20;1.00
1181;DHT22;579;52.046;8.532;2023-03-11T03:11:47;2.10;1.00
1181;DHT22;579;52.046;8.532;2023-03-11T03:14:13;2.00;1.00
1181;DHT22;579;52.046;8.532;2023-03-11T03:16:39;2.10;1.00
1181;DHT22;579;52.046;8.532;2023-03-11T03:19:05;2.30;1.00
1181;DHT22;579;52.046;8.532;2023-03-11T03:21:32;2.30;1.00
1181;DHT22;579;52.046;8.532;2023-03-11T03:29:04;2.60;1.00
1181;DHT22;579;52.046;8.532;2023-03-11T03:31:31;2.80;1.00
1181;DHT22;579;52.046;8.532;2023-03-11T03:33:57;2.80;1.00
1181;DHT22;579;52.046;8.532;2023-03-11T03:36:23;2.60;1.00
1181;DHT22;579;52.046;8.532;2023-03-11T03:38:52;2.60;1.00
1181;DHT22;579;52.046;8.532;2023-03-11T03:41:19;2.60;1.00
1181;DHT22;579;52.046;8.532;2023-03-11T03:43:46;2.70;1.00
1181;DHT22;579;52.046;8.532;2023-03-11T03:51:02;3.00;1.00
1181;DHT22;579;52.046;8.532;2023-03-11T03:53:29;3.20;1.00
1181;DHT22;579;52.046;8.532;2023-03-11T03:55:55;3.30;1.00
1181;DHT22;579;52.046;8.532;2023-03-11T03:58:21;3.50;1.00
1181;DHT22;579;52.046;8.532;2023-03-11T04:00:48;3.30;1.00
1181;DHT22;579;52.046;8.532;2023-03-11T04:03:14;3.10;1.00
1181;DHT22;579;52.046;8.532;2023-03-11T04:05:40;2.90;1.00
1181;DHT22;579;52.046;8.532;2023-03-11T04:15:48;3.00;1.00
1181;DHT22;579;52.046;8.532;2023-03-11T04:18:15;3.20;1.00
1181;DHT22;579;52.046;8.532;2023-03-11T04:20:41;3.00;1.00
1181;DHT22;579;52.046;8.532;2023-03-11T04:23:07;3.00;1.00
1181;DHT22;579;52.046;8.532;2023-03-11T04:25:33;3.00;1.00
1181;DHT22;579;52.046;8.532;2023-03-11T04:27:59;3.10;1.00
1181;DHT22;579;52.046;8.532;2023-03-11T04:30:25;2.90;1.00
1181;DHT22;579;52.046;8.532;2023-03-11T04:36:07;2.70;1.00
1181;DHT22;579;52.046;8.532;2023-03-11T04:38:35;2.70;1.00
1181;DHT22;579;52.046;8.532;2023-03-11T04:41:01;2.90;1.00
1181;DHT22;579;52.046;8.532;2023-03-11T04:43:27;2.90;1.00
1181;DHT22;579;52.046;8.532;2023-03-11T04:45:54;3.10;1.00
1181;DHT22;579;52.046;8.532;2023-03-11T04:48:20;2.90;1.00
1181;DHT22;579;52.046;8.532;2023-03-11T04:50:46;3.10;1.00
1181;DHT22;579;52.046;8.532;2023-03-11T05:00:48;3.10;1.00
1181;DHT22;579;52.046;8.532;2023-03-11T05:03:15;3.00;1.00
1181;DHT22;579;52.046;8.532;2023-03-11T05:05:41;2.70;1.00
1181;DHT22;579;52.046;8.532;2023-03-11T05:08:07;2.70;1.00
1181;DHT22;579;52.046;8.532;2023-03-11T05:10:33;2.80;1.00
1181;DHT22;579;52.046;8.532;2023-03-11T05:12:59;2.40;1.00
1181;DHT22;579;52.046;8.532;2023-03-11T05:15:26;2.30;1.00
1181;DHT22;579;52.046;8.532;2023-03-11T05:17:53;2.30;1.00
1181;DHT22;579;52.046;8.532;2023-03-11T05:21:32;2.40;1.00
1181;DHT22;579;52.046;8.532;2023-03-11T05:23:58;2.70;1.00
1181;DHT22;579;52.046;8.532;2023-03-11T05:26:25;2.60;1.00
1181;DHT22;579;52.046;8.532;2023-03-11T05:28:51;2.60;1.00
1181;DHT22;579;52.046;8.532;2023-03-11T05:31:17;2.50;1.00
1181;DHT22;579;52.046;8.532;2023-03-11T05:33:43;2.20;1.00
1181;DHT22;579;52.046;8.532;2023-03-11T05:36:09;2.50;1.00
1181;DHT22;579;52.046;8.532;2023-03-11T05:38:37;2.40;1.00
1181;DHT22;579;52.046;8.532;2023-03-11T05:46:08;2.60;1.00
1181;DHT22;579;52.046;8.532;2023-03-11T05:48:34;2.40;1.00
1181;DHT22;579;52.046;8.532;2023-03-11T05:51:05;2.70;1.00
1181;DHT22;579;52.046;8.532;2023-03-11T05:53:32;2.60;1.00
1181;DHT22;579;52.046;8.532;2023-03-11T05:55:58;2.90;1.00
1181;DHT22;579;52.046;8.532;2023-03-11T05:58:26;2.70;1.00
1181;DHT22;579;52.046;8.532;2023-03-11T06:00:52;2.70;1.00
1181;DHT22;579;52.046;8.532;2023-03-11T06:03:20;2.70;1.00
1181;DHT22;579;52.046;8.532;2023-03-11T06:11:37;2.30;1.00
1181;DHT22;579;52.046;8.532;2023-03-11T06:14:03;2.00;1.00
1181;DHT22;579;52.046;8.532;2023-03-11T06:16:29;1.90;1.00
1181;DHT22;579;52.046;8.532;2023-03-11T06:18:55;1.90;1.00
1181;DHT22;579;52.046;8.532;2023-03-11T06:21:23;2.20;1.00
1181;DHT22;579;52.046;8.532;2023-03-11T06:23:51;2.70;1.00
1181;DHT22;579;52.046;8.532;2023-03-11T06:26:19;2.90;1.00
1181;DHT22;579;52.046;8.532;2023-03-11T06:33:52;2.90;1.00
1181;DHT22;579;52.046;8.532;2023-03-11T06:36:20;2.80;1.00
1181;DHT22;579;52.046;8.532;2023-03-11T06:38:47;2.70;1.00
1181;DHT22;579;52.046;8.532;2023-03-11T06:41:16;2.90;1.00
1181;DHT22;579;52.046;8.532;2023-03-11T06:43:42;2.90;1.00
1181;DHT22;579;52.046;8.532;2023-03-11T06:46:10;3.20;1.00
1181;DHT22;579;52.046;8.532;2023-03-11T06:48:38;3.30;1.00
1181;DHT22;579;52.046;8.532;2023-03-11T06:51:05;3.10;1.00
1181;DHT22;579;52.046;8.532;2023-03-11T06:56:12;3.20;1.00
1181;DHT22;579;52.046;8.532;2023-03-11T06:58:40;3.00;1.00
1181;DHT22;579;52.046;8.532;2023-03-11T07:01:09;3.20;1.00
1181;DHT22;579;52.046;8.532;2023-03-11T07:03:37;3.40;1.00
1181;DHT22;579;52.046;8.532;2023-03-11T07:06:04;3.40;1.00
1181;DHT22;579;52.046;8.532;2023-03-11T07:08:31;3.40;1.00
1181;DHT22;579;52.046;8.532;2023-03-11T07:11:02;3.40;1.00
1181;DHT22;579;52.046;8.532;2023-03-11T07:18:37;3.50;1.00
1181;DHT22;579;52.046;8.532;2023-03-11T07:21:05;3.50;1.00
1181;DHT22;579;52.046;8.532;2023-03-11T07:23:33;3.30;1.00
1181;DHT22;579;52.046;8.532;2023-03-11T07:26:00;3.50;1.00
1181;DHT22;579;52.046;8.532;2023-03-11T07:28:27;3.40;1.00
1181;DHT22;579;52.046;8.532;2023-03-11T07:30:54;3.50;1.00
1181;DHT22;579;52.046;8.532;2023-03-11T07:33:21;3.40;1.00
1181;DHT22;579;52.046;8.532;2023-03-11T07:35:49;3.10;1.00
1181;DHT22;579;52.046;8.532;2023-03-11T07:43:18;3.00;1.00
1181;DHT22;579;52.046;8.532;2023-03-11T07:45:44;3.20;1.00
1181;DHT22;579;52.046;8.532;2023-03-11T07:48:10;3.50;1.00
1181;DHT22;579;52.046;8.532;2023-03-11T07:50:36;3.50;1.00
1181;DHT22;579;52.046;8.532;2023-03-11T07:53:02;3.30;1.00
1181;DHT22;579;52.046;8.532;2023-03-11T07:55:28;3.50;1.00
1181;DHT22;579;52.046;8.532;2023-03-11T07:57:54;3.50;1.00
1181;DHT22;579;52.046;8.532;2023-03-11T08:03:01;3.40;1.00
1181;DHT22;579;52.046;8.532;2023-03-11T08:05:27;3.80;1.00
1181;DHT22;579;52.046;8.532;2023-03-11T08:07:58;3.90;1.00
1181;DHT22;579;52.046;8.532;2023-03-11T08:10:24;4.00;1.00
1181;DHT22;579;52.046;8.532;2023-03-11T08:12:50;3.90;1.00
1181;DHT22;579;52.046;8.532;2023-03-11T08:15:16;3.80;1.00
1181;DHT22;579;52.046;8.532;2023-03-11T08:17:45;3.80;1.00
1181;DHT22;579;52.046;8.532;2023-03-11T08:20:13;4.20;1.00
1181;DHT22;579;52.046;8.532;2023-03-11T08:25:19;4.20;1.00
1181;DHT22;579;52.046;8.532;2023-03-11T08:27:45;4.50;1.00
1181;DHT22;579;52.046;8.532;2023-03-11T08:30:12;4.50;1.00
1181;DHT22;579;52.046;8.532;2023-03-11T08:32:39;4.40;1.00
1181;DHT22;579;52.046;8.532;2023-03-11T08:35:06;4.50;1.00
1181;DHT22;579;52.046;8.532;2023-03-11T08:37:32;4.40;1.00
1181;DHT22;579;52.046;8.532;2023-03-11T08:39:58;4.60;1.00
1181;DHT22;579;52.046;8.532;2023-03-11T08:47:32;5.10;1.00
1181;DHT22;579;52.046;8.532;2023-03-11T08:49:59;5.60;1.00
1181;DHT22;579;52.046;8.532;2023-03-11T08:52:25;5.80;1.00
1181;DHT22;579;52.046;8.532;2023-03-11T08:54:51;6.20;1.00
1181;DHT22;579;52.046;8.532;2023-03-11T08:57:17;6.10;1.00
1181;DHT22;579;52.046;8.532;2023-03-11T08:59:43;6.50;1.00
1181;DHT22;579;52.046;8.532;2023-03-11T09:02:10;6.30;1.00
1181;DHT22;579;52.046;8.532;2023-03-11T09:04:36;6.40;1.00
1181;DHT22;579;52.046;8.532;2023-03-11T09:12:09;6.50;1.00
1181;DHT22;579;52.046;8.532;2023-03-11T09:14:38;6.90;1.00
1181;DHT22;579;52.046;8.532;2023-03-11T09:17:04;6.70;1.00
1181;DHT22;579;52.046;8.532;2023-03-11T09:19:30;6.70;1.00
1181;DHT22;579;52.046;8.532;2023-03-11T09:21:58;7.00;1.00
1181;DHT22;579;52.046;8.532;2023-03-11T09:24:25;7.00;1.00
1181;DHT22;579;52.046;8.532;2023-03-11T09:26:51;7.10;1.00
1181;DHT22;579;52.046;8.532;2023-03-11T09:31:58;7.50;1.00
1181;DHT22;579;52.046;8.532;2023-03-11T09:34:24;7.70;1.00
1181;DHT22;579;52.046;8.532;2023-03-11T09:36:50;7.90;1.00
1181;DHT22;579;52.046;8.532;2023-03-11T09:39:17;8.20;1.00
1181;DHT22;579;52.046;8.532;2023-03-11T09:41:48;8.40;1.00
1181;DHT22;579;52.046;8.532;2023-03-11T09:44:21;8.60;1.00
1181;DHT22;579;52.046;8.532;2023-03-11T09:47:04;8.70;1.00
1181;DHT22;579;52.046;8.532;2023-03-11T09:54:49;8.50;1.00
1181;DHT22;579;52.046;8.532;2023-03-11T09:57:21;8.50;1.00
1181;DHT22;579;52.046;8.532;2023-03-11T09:59:49;8.20;1.00
1181;DHT22;579;52.046;8.532;2023-03-11T10:02:18;8.00;1.00
1181;DHT22;579;52.046;8.532;2023-03-11T10:04:51;8.00;1.00
1181;DHT22;579;52.046;8.532;2023-03-11T10:07:25;7.80;1.00
1181;DHT22;579;52.046;8.532;2023-03-11T10:09:55;8.00;1.00
1181;DHT22;579;52.046;8.532;2023-03-11T10:15:21;7.50;1.00
1181;DHT22;579;52.046;8.532;2023-03-11T10:18:10;7.10;1.00
1181;DHT22;579;52.046;8.532;2023-03-11T10:20:48;6.80;1.00
1181;DHT22;579;52.046;8.532;2023-03-11T10:23:23;6.50;1.00
1181;DHT22;579;52.046;8.532;2023-03-11T10:25:58;6.50;1.00
1181;DHT22;579;52.046;8.532;2023-03-11T10:28:31;6.60;1.00
1181;DHT22;579;52.046;8.532;2023-03-11T10:31:05;6.60;1.00
1181;DHT22;579;52.046;8.532;2023-03-11T10:38:41;6.60;1.00
1181;DHT22;579;52.046;8.532;2023-03-11T10:41:15;6.70;1.00
1181;DHT22;579;52.046;8.532;2023-03-11T10:43:47;6.80;1.00
1181;DHT22;579;52.046;8.532;2023-03-11T10:46:18;6.90;1.00
1181;DHT22;579;52.046;8.532;2023-03-11T10:48:46;7.20;1.00
1181;DHT22;579;52.046;8.532;2023-03-11T10:51:15;7.00;1.00
1181;DHT22;579;52.046;8.532;2023-03-11T10:53:49;7.20;1.00
1181;DHT22;579;52.046;8.532;2023-03-11T11:02:30;6.90;1.00
1181;DHT22;579;52.046;8.532;2023-03-11T11:05:05;7.10;1.00
1181;DHT22;579;52.046;8.532;2023-03-11T11:07:35;6.80;1.00
1181;DHT22;579;52.046;8.532;2023-03-11T11:10:16;6.70;1.00
1181;DHT22;579;52.046;8.532;2023-03-11T11:12:52;6.50;1.00
1181;DHT22;579;52.046;8.532;2023-03-11T11:15:21;6.30;1.00
1181;DHT22;579;52.046;8.532;2023-03-11T11:17:49;6.60;1.00
1181;DHT22;579;52.046;8.532;2023-03-11T11:23:00;6.70;1.00
1181;DHT22;579;52.046;8.532;2023-03-11T11:25:31;6.70;1.00
1181;DHT22;579;52.046;8.532;2023-03-11T11:28:01;6.60;1.00
1181;DHT22;579;52.046;8.532;2023-03-11T11:30:30;6.50;1.00
1181;DHT22;579;52.046;8.532;2023-03-11T11:33:18;6.70;1.00
1181;DHT22;579;52.046;8.532;2023-03-11T11:35:48;7.10;1.00
1181;DHT22;579;52.046;8.532;2023-03-11T11:38:17;7.00;1.00
1181;DHT22;579;52.046;8.532;2023-03-11T11:43:39;7.20;1.00
1181;DHT22;579;52.046;8.532;2023-03-11T11:46:18;7.10;1.00
1181;DHT22;579;52.046;8.532;2023-03-11T11:48:52;7.00;1.00
1181;DHT22;579;52.046;8.532;2023-03-11T11:51:25;7.20;1.00
1181;DHT22;579;52.046;8.532;2023-03-11T11:53:58;7.20;1.00
1181;DHT22;579;52.046;8.532;2023-03-11T11:56:26;7.10;1.00
1181;DHT22;579;52.046;8.532;2023-03-11T11:58:53;6.90;1.00
1181;DHT22;579;52.046;8.532;2023-03-11T12:04:24;7.00;1.00
1181;DHT22;579;52.046;8.532;2023-03-11T12:07:03;7.00;1.00
1181;DHT22;579;52.046;8.532;2023-03-11T12:09:42;6.90;1.00
1181;DHT22;579;52.046;8.532;2023-03-11T12:12:20;7.20;1.00
1181;DHT22;579;52.046;8.532;2023-03-11T12:14:58;7.20;1.00
1181;DHT22;579;52.046;8.532;2023-03-11T12:17:29;7.40;1.00
1181;DHT22;579;52.046;8.532;2023-03-11T12:19:59;7.50;1.00
1181;DHT22;579;52.046;8.532;2023-03-11T12:28:00;7.60;1.00
1181;DHT22;579;52.046;8.532;2023-03-11T12:30:36;8.10;1.00
1181;DHT22;579;52.046;8.532;2023-03-11T12:33:11;8.40;1.00
1181;DHT22;579;52.046;8.532;2023-03-11T12:35:47;8.40;1.00
1181;DHT22;579;52.046;8.532;2023-03-11T12:38:16;8.50;1.00
1181;DHT22;579;52.046;8.532;2023-03-11T12:41:03;8.40;1.00
1181;DHT22;579;52.046;8.532;2023-03-11T12:50:38;8.40;1.00
1181;DHT22;579;52.046;8.532;2023-03-11T12:53:15;8.40;1.00
1181;DHT22;579;52.046;8.532;2023-03-11T12:55:58;9.00;1.00
1181;DHT22;579;52.046;8.532;2023-03-11T12:58:52;9.90;1.00
1181;DHT22;579;52.046;8.532;2023-03-11T13:01:42;11.10;1.00
1181;DHT22;579;52.046;8.532;2023-03-11T13:04:24;10.80;1.00
1181;DHT22;579;52.046;8.532;2023-03-11T13:12:44;9.70;1.00
1181;DHT22;579;52.046;8.532;2023-03-11T13:15:33;9.50;1.00
1181;DHT22;579;52.046;8.532;2023-03-11T13:18:16;9.20;1.00
1181;DHT22;579;52.046;8.532;2023-03-11T13:20:46;10.10;1.00
1181;DHT22;579;52.046;8.532;2023-03-11T13:23:29;10.50;1.00
1181;DHT22;579;52.046;8.532;2023-03-11T13:33:50;11.30;1.00
1181;DHT22;579;52.046;8.532;2023-03-11T13:36:31;11.20;1.00
1181;DHT22;579;52.046;8.532;2023-03-11T13:39:21;11.40;1.00
1181;DHT22;579;52.046;8.532;2023-03-11T13:41:52;12.20;1.00
1181;DHT22;579;52.046;8.532;2023-03-11T13:44:25;12.70;1.00
1181;DHT22;579;52.046;8.532;2023-03-11T13:46:57;13.00;1.00
1181;DHT22;579;52.046;8.532;2023-03-11T13:49:33;12.90;1.00
1181;DHT22;579;52.046;8.532;2023-03-11T13:56:57;14.10;1.00
1181;DHT22;579;52.046;8.532;2023-03-11T13:59:26;13.80;1.00
1181;DHT22;579;52.046;8.532;2023-03-11T14:01:55;14.00;1.00
1181;DHT22;579;52.046;8.532;2023-03-11T14:04:25;14.20;1.00
1181;DHT22;579;52.046;8.532;2023-03-11T14:06:52;14.10;1.00
1181;DHT22;579;52.046;8.532;2023-03-11T14:09:20;13.90;1.00
1181;DHT22;579;52.046;8.532;2023-03-11T14:11:48;13.40;1.00
1181;DHT22;579;52.046;8.532;2023-03-11T14:17:03;13.80;1.00
1181;DHT22;579;52.046;8.532;2023-03-11T14:19:31;14.10;1.00
1181;DHT22;579;52.046;8.532;2023-03-11T14:21:57;14.80;1.00
1181;DHT22;579;52.046;8.532;2023-03-11T14:24:26;15.50;1.00
1181;DHT22;579;52.046;8.532;2023-03-11T14:26:55;15.60;1.00
1181;DHT22;579;52.046;8.532;2023-03-11T14:29:29;15.00;1.00
1181;DHT22;579;52.046;8.532;2023-03-11T14:31:56;14.40;1.00
1181;DHT22;579;52.046;8.532;2023-03-11T14:34:24;14.00;1.00
1181;DHT22;579;52.046;8.532;2023-03-11T14:43:31;13.20;1.00
1181;DHT22;579;52.046;8.532;2023-03-11T14:46:00;14.60;1.00
1181;DHT22;579;52.046;8.532;2023-03-11T14:48:29;15.00;1.00
1181;DHT22;579;52.046;8.532;2023-03-11T14:50:58;15.10;1.00
1181;DHT22;579;52.046;8.532;2023-03-11T14:53:28;15.80;1.00
1181;DHT22;579;52.046;8.532;2023-03-11T14:55:56;15.90;1.00
1181;DHT22;579;52.046;8.532;2023-03-11T14:58:29;15.90;1.00
1181;DHT22;579;52.046;8.532;2023-03-11T15:05:34;18.20;1.00
1181;DHT22;579;52.046;8.532;2023-03-11T15:08:04;18.30;1.00
1181;DHT22;579;52.046;8.532;2023-03-11T15:10:32;19.10;1.00
1181;DHT22;579;52.046;8.532;2023-03-11T15:13:07;21.10;1.00
1181;DHT22;579;52.046;8.532;2023-03-11T15:15:36;22.90;1.00
1181;DHT22;579;52.046;8.532;2023-03-11T15:18:14;24.00;1.00
1181;DHT22;579;52.046;8.532;2023-03-11T15:21:03;24.90;1.00
1181;DHT22;579;52.046;8.532;2023-03-11T15:30:00;26.10;1.00
1181;DHT22;579;52.046;8.532;2023-03-11T15:32:38;26.80;1.00
1181;DHT22;579;52.046;8.532;2023-03-11T15:35:15;27.30;1.00
1181;DHT22;579;52.046;8.532;2023-03-11T15:37:43;27.50;1.00
1181;DHT22;579;52.046;8.532;2023-03-11T15:40:11;27.70;1.00
1181;DHT22;579;52.046;8.532;2023-03-11T15:42:42;27.80;1.00
1181;DHT22;579;52.046;8.532;2023-03-11T15:48:57;27.60;1.00
1181;DHT22;579;52.046;8.532;2023-03-11T15:51:23;27.70;1.00
1181;DHT22;579;52.046;8.532;2023-03-11T15:53:49;27.60;1.00
1181;DHT22;579;52.046;8.532;2023-03-11T15:56:23;26.70;1.00
1181;DHT22;579;52.046;8.532;2023-03-11T15:58:50;23.90;1.00
1181;DHT22;579;52.046;8.532;2023-03-11T16:01:16;21.00;1.00
1181;DHT22;579;52.046;8.532;2023-03-11T16:03:47;18.70;1.00
1181;DHT22;579;52.046;8.532;2023-03-11T16:11:18;15.50;1.00
1181;DHT22;579;52.046;8.532;2023-03-11T16:13:44;13.30;1.00
1181;DHT22;579;52.046;8.532;2023-03-11T16:16:15;12.50;1.00
1181;DHT22;579;52.046;8.532;2023-03-11T16:18:41;11.60;1.00
1181;DHT22;579;52.046;8.532;2023-03-11T16:21:12;11.10;1.00
1181;DHT22;579;52.046;8.532;2023-03-11T16:23:40;10.40;1.00
1181;DHT22;579;52.046;8.532;2023-03-11T16:26:06;9.90;1.00
1181;DHT22;579;52.046;8.532;2023-03-11T16:31:16;9.40;1.00
1181;DHT22;579;52.046;8.532;2023-03-11T16:33:42;9.10;1.00
1181;DHT22;579;52.046;8.532;2023-03-11T16:36:09;9.00;1.00
1181;DHT22;579;52.046;8.532;2023-03-11T16:38:42;8.80;1.00
1181;DHT22;579;52.046;8.532;2023-03-11T16:41:10;8.50;1.00
1181;DHT22;579;52.046;8.532;2023-03-11T16:43:36;8.20;1.00
1181;DHT22;579;52.046;8.532;2023-03-11T16:46:03;8.00;1.00
1181;DHT22;579;52.046;8.532;2023-03-11T16:48:30;8.20;1.00
1181;DHT22;579;52.046;8.532;2023-03-11T16:55:28;8.20;1.00
1181;DHT22;579;52.046;8.532;2023-03-11T16:57:55;7.90;1.00
1181;DHT22;579;52.046;8.532;2023-03-11T17:00:22;7.60;1.00
1181;DHT22;579;52.046;8.532;2023-03-11T17:02:49;7.80;1.00
1181;DHT22;579;52.046;8.532;2023-03-11T17:05:16;7.70;1.00
1181;DHT22;579;52.046;8.532;2023-03-11T17:07:42;7.80;1.00
1181;DHT22;579;52.046;8.532;2023-03-11T17:10:10;7.60;1.00
1181;DHT22;579;52.046;8.532;2023-03-11T17:12:37;7.70;1.00
1181;DHT22;579;52.046;8.532;2023-03-11T17:20:11;7.30;1.00
1181;DHT22;579;52.046;8.532;2023-03-11T17:22:37;7.00;1.00
1181;DHT22;579;52.046;8.532;2023-03-11T17:25:04;6.90;1.00
1181;DHT22;579;52.046;8.532;2023-03-11T17:27:31;6.80;1.00
1181;DHT22;579;52.046;8.532;2023-03-11T17:29:58;7.00;1.00
1181;DHT22;579;52.046;8.532;2023-03-11T17:32:24;6.70;1.00
1181;DHT22;579;52.046;8.532;2023-03-11T17:34:51;6.70;1.00
1181;DHT22;579;52.046;8.532;2023-03-11T17:37:17;6.70;1.00
1181;DHT22;579;52.046;8.532;2023-03-11T17:44:49;6.10;1.00
1181;DHT22;579;52.046;8.532;2023-03-11T17:47:15;6.20;1.00
1181;DHT22;579;52.046;8.532;2023-03-11T17:49:43;6.20;1.00
1181;DHT22;579;52.046;8.532;2023-03-11T17:52:10;5.80;1.00
1181;DHT22;579;52.046;8.532;2023-03-11T17:54:37;5.50;1.00
1181;DHT22;579;52.046;8.532;2023-03-11T17:57:03;5.60;1.00
1181;DHT22;579;52.046;8.532;2023-03-11T17:59:29;5.40;1.00
1181;DHT22;579;52.046;8.532;2023-03-11T18:01:56;5.40;1.00
1181;DHT22;579;52.046;8.532;2023-03-11T18:04:36;5.30;1.00
1181;DHT22;579;52.046;8.532;2023-03-11T18:07:03;5.40;1.00
1181;DHT22;579;52.046;8.532;2023-03-11T18:09:29;5.40;1.00
1181;DHT22;579;52.046;8.532;2023-03-11T18:11:55;5.40;1.00
1181;DHT22;579;52.046;8.532;2023-03-11T18:14:22;5.20;1.00
1181;DHT22;579;52.046;8.532;2023-03-11T18:16:48;5.00;1.00
1181;DHT22;579;52.046;8.532;2023-03-11T18:19:14;5.00;1.00
1181;DHT22;579;52.046;8.532;2023-03-11T18:28:29;5.20;1.00
1181;DHT22;579;52.046;8.532;2023-03-11T18:31:04;5.20;1.00
1181;DHT22;579;52.046;8.532;2023-03-11T18:33:31;5.30;1.00
1181;DHT22;579;52.046;8.532;2023-03-11T18:35:57;5.10;1.00
1181;DHT22;579;52.046;8.532;2023-03-11T18:38:24;4.80;1.00
1181;DHT22;579;52.046;8.532;2023-03-11T18:40:55;4.80;1.00
1181;DHT22;579;52.046;8.532;2023-03-11T18:43:22;4.80;1.00
1181;DHT22;579;52.046;8.532;2023-03-11T18:48:28;4.80;1.00
1181;DHT22;579;52.046;8.532;2023-03-11T18:50:55;4.80;1.00
1181;DHT22;579;52.046;8.532;2023-03-11T18:53:21;4.70;1.00
1181;DHT22;579;52.046;8.532;2023-03-11T18:55:49;4.60;1.00
1181;DHT22;579;52.046;8.532;2023-03-11T18:58:16;4.30;1.00
1181;DHT22;579;52.046;8.532;2023-03-11T19:00:42;4.60;1.00
1181;DHT22;579;52.046;8.532;2023-03-11T19:03:09;4.60;1.00
1181;DHT22;579;52.046;8.532;2023-03-11T19:05:36;4.90;1.00
1181;DHT22;579;52.046;8.532;2023-03-11T19:12:59;4.40;1.00
1181;DHT22;579;52.046;8.532;2023-03-11T19:15:25;4.60;1.00
1181;DHT22;579;52.046;8.532;2023-03-11T19:17:51;4.50;1.00
1181;DHT22;579;52.046;8.532;2023-03-11T19:20:18;4.20;1.00
1181;DHT22;579;52.046;8.532;2023-03-11T19:22:44;4.20;1.00
1181;DHT22;579;52.046;8.532;2023-03-11T19:25:10;4.20;1.00
1181;DHT22;579;52.046;8.532;2023-03-11T19:27:36;4.20;1.00
1181;DHT22;579;52.046;8.532;2023-03-11T19:30:10;4.50;1.00
1181;DHT22;579;52.046;8.532;2023-03-11T19:32:52;4.50;1.00
1181;DHT22;579;52.046;8.532;2023-03-11T19:35:19;4.60;1.00
1181;DHT22;579;52.046;8.532;2023-03-11T19:37:45;4.20;1.00
1181;DHT22;579;52.046;8.532;2023-03-11T19:40:12;4.10;1.00
1181;DHT22;579;52.046;8.532;2023-03-11T19:42:39;4.20;1.00
1181;DHT22;579;52.046;8.532;2023-03-11T19:45:06;4.30;1.00
1181;DHT22;579;52.046;8.532;2023-03-11T19:47:33;4.30;1.00
1181;DHT22;579;52.046;8.532;2023-03-11T19:50:00;4.10;1.00
1181;DHT22;579;52.046;8.532;2023-03-11T19:57:32;4.30;1.00
1181;DHT22;579;52.046;8.532;2023-03-11T19:59:58;4.50;1.00
1181;DHT22;579;52.046;8.532;2023-03-11T20:02:25;4.70;1.00
1181;DHT22;579;52.046;8.532;2023-03-11T20:04:51;4.60;1.00
1181;DHT22;579;52.046;8.532;2023-03-11T20:07:17;4.50;1.00
1181;DHT22;579;52.046;8.532;2023-03-11T20:09:43;4.50;1.00
1181;DHT22;579;52.046;8.532;2023-03-11T20:12:10;4.70;1.00
1181;DHT22;579;52.046;8.532;2023-03-11T20:14:36;4.60;1.00
1181;DHT22;579;52.046;8.532;2023-03-11T20:19:46;3.90;1.00
1181;DHT22;579;52.046;8.532;2023-03-11T20:22:12;3.40;1.00
1181;DHT22;579;52.046;8.532;2023-03-11T20:24:38;3.50;1.00
1181;DHT22;579;52.046;8.532;2023-03-11T20:27:04;3.30;1.00
1181;DHT22;579;52.046;8.532;2023-03-11T20:29:30;3.10;1.00
1181;DHT22;579;52.046;8.532;2023-03-11T20:31:56;3.10;1.00
1181;DHT22;579;52.046;8.532;2023-03-11T20:34:22;3.00;1.00
1181;DHT22;579;52.046;8.532;2023-03-11T20:36:49;3.20;1.00
1181;DHT22;579;52.046;8.532;2023-03-11T20:45:31;3.10;1.00
1181;DHT22;579;52.046;8.532;2023-03-11T20:47:57;3.10;1.00
1181;DHT22;579;52.046;8.532;2023-03-11T20:50:23;3.50;1.00
1181;DHT22;579;52.046;8.532;2023-03-11T20:52:50;3.20;1.00
1181;DHT22;579;52.046;8.532;2023-03-11T20:55:16;3.10;1.00